地図

経路データ

SID SEASON NUMBER BASIN SUBBASIN NAME ISO_TIME NATURE LAT LON WMO_WIND WMO_PRES WMO_AGENCY TRACK_TYPE DIST2LAND LANDFALL IFLAG USA_AGENCY USA_ATCF_ID USA_LAT USA_LON USA_RECORD USA_STATUS USA_WIND USA_PRES USA_SSHS USA_R34_NE USA_R34_SE USA_R34_SW USA_R34_NW USA_R50_NE USA_R50_SE USA_R50_SW USA_R50_NW USA_R64_NE USA_R64_SE USA_R64_SW USA_R64_NW USA_POCI USA_ROCI USA_RMW USA_EYE TOKYO_LAT TOKYO_LON TOKYO_GRADE TOKYO_WIND TOKYO_PRES TOKYO_R50_DIR TOKYO_R50_LONG TOKYO_R50_SHORT TOKYO_R30_DIR TOKYO_R30_LONG TOKYO_R30_SHORT TOKYO_LAND CMA_LAT CMA_LON CMA_CAT CMA_WIND CMA_PRES HKO_LAT HKO_LON HKO_CAT HKO_WIND HKO_PRES NEWDELHI_LAT NEWDELHI_LON NEWDELHI_GRADE NEWDELHI_WIND NEWDELHI_PRES NEWDELHI_CI NEWDELHI_DP NEWDELHI_POCI REUNION_LAT REUNION_LON REUNION_TYPE REUNION_WIND REUNION_PRES REUNION_TNUM REUNION_CI REUNION_RMW REUNION_R34_NE REUNION_R34_SE REUNION_R34_SW REUNION_R34_NW REUNION_R50_NE REUNION_R50_SE REUNION_R50_SW REUNION_R50_NW REUNION_R64_NE REUNION_R64_SE REUNION_R64_SW REUNION_R64_NW BOM_LAT BOM_LON BOM_TYPE BOM_WIND BOM_PRES BOM_TNUM BOM_CI BOM_RMW BOM_R34_NE BOM_R34_SE BOM_R34_SW BOM_R34_NW BOM_R50_NE BOM_R50_SE BOM_R50_SW BOM_R50_NW BOM_R64_NE BOM_R64_SE BOM_R64_SW BOM_R64_NW BOM_ROCI BOM_POCI BOM_EYE BOM_POS_METHOD BOM_PRES_METHOD NADI_LAT NADI_LON NADI_CAT NADI_WIND NADI_PRES WELLINGTON_LAT WELLINGTON_LON WELLINGTON_WIND WELLINGTON_PRES DS824_LAT DS824_LON DS824_STAGE DS824_WIND DS824_PRES TD9636_LAT TD9636_LON TD9636_STAGE TD9636_WIND TD9636_PRES TD9635_LAT TD9635_LON TD9635_WIND TD9635_PRES TD9635_ROCI NEUMANN_LAT NEUMANN_LON NEUMANN_CLASS NEUMANN_WIND NEUMANN_PRES MLC_LAT MLC_LON MLC_CLASS MLC_WIND MLC_PRES USA_GUST BOM_GUST BOM_GUST_PER REUNION_GUST REUNION_GUST_PER USA_SEAHGT USA_SEARAD_NE USA_SEARAD_SE USA_SEARAD_SW USA_SEARAD_NW STORM_SPEED STORM_DIR
1860227N25311 1860 21 NA NA NOT_NAMED 1860-08-13 12:00:00 TS 25.1000 -48.8000 main 1887 1872 _____________O -1 25.1000 -48.8000 TD 30 6 311
1860227N25311 1860 21 NA NA NOT_NAMED 1860-08-13 15:00:00 TS 25.3001 -49.0498 main 1876 1856 _____________P -1 25.3001 -49.0498 TD 35 6 311
1860227N25311 1860 21 NA NA NOT_NAMED 1860-08-13 18:00:00 TS 25.5000 -49.3000 main 1856 1842 _____________O -1 25.5000 -49.3000 TS 40 6 312
1860227N25311 1860 21 NA NA NOT_NAMED 1860-08-13 21:00:00 TS 25.7000 -49.5501 main 1837 1827 _____________P -1 25.7000 -49.5501 TS 47 6 312
1860227N25311 1860 21 NA NA NOT_NAMED 1860-08-14 00:00:00 TS 25.9000 -49.8000 main 1827 1809 _____________O -1 25.9000 -49.8000 TS 55 6 311
1860227N25311 1860 21 NA NA NOT_NAMED 1860-08-14 03:00:00 TS 26.1000 -50.0650 main 1809 1801 _____________P -1 26.1000 -50.0650 TS 57 6 312
1860227N25311 1860 21 NA NA NOT_NAMED 1860-08-14 06:00:00 TS 26.3000 -50.3000 main 1801 1793 _____________O -1 26.3000 -50.3000 TS 60 5 317
1860227N25311 1860 21 NA NA NOT_NAMED 1860-08-14 09:00:00 TS 26.5000 -50.4800 main 1793 1790 _____________P -1 26.5000 -50.4800 TS 70 5 326
1860227N25311 1860 21 NA NA NOT_NAMED 1860-08-14 12:00:00 TS 26.7000 -50.6000 main 1795 1791 _____________O -1 26.7000 -50.6000 HU 80 4 338
1860227N25311 1860 21 NA NA NOT_NAMED 1860-08-14 15:00:00 TS 26.9000 -50.6651 main 1797 1797 _____________P -1 26.9000 -50.6651 HU 80 4 348
1860227N25311 1860 21 NA NA NOT_NAMED 1860-08-14 18:00:00 TS 27.1000 -50.7000 main 1808 1808 _____________O -1 27.1000 -50.7000 HU 80 4 349
1860227N25311 1860 21 NA NA NOT_NAMED 1860-08-14 21:00:00 TS 27.2925 -50.7500 main 1810 1810 _____________P -1 27.2925 -50.7500 HU 80 4 348
1860227N25311 1860 21 NA NA NOT_NAMED 1860-08-15 00:00:00 TS 27.5000 -50.8000 main 1822 1822 _____________O -1 27.5000 -50.8000 HU 80 5 349
1860227N25311 1860 21 NA NA NOT_NAMED 1860-08-15 03:00:00 TS 27.7425 -50.8500 main 1833 1825 _____________P -1 27.7425 -50.8500 HU 80 5 350
1860227N25311 1860 21 NA NA NOT_NAMED 1860-08-15 06:00:00 TS 28.0000 -50.9000 main 1842 1842 _____________O -1 28.0000 -50.9000 HU 80 5 350
1860227N25311 1860 21 NA NA NOT_NAMED 1860-08-15 09:00:00 TS 28.2500 -50.9500 main 1852 1846 _____________P -1 28.2500 -50.9500 HU 80 5 350
1860227N25311 1860 21 NA NA NOT_NAMED 1860-08-15 12:00:00 TS 28.5000 -51.0000 main 1865 1865 _____________O -1 28.5000 -51.0000 HU 80 5 350
1860227N25311 1860 21 NA NA NOT_NAMED 1860-08-15 15:00:00 TS 28.7575 -51.0500 main 1876 1876 _____________P -1 28.7575 -51.0500 HU 77 5 350
1860227N25311 1860 21 NA NA NOT_NAMED 1860-08-15 18:00:00 TS 29.0000 -51.1000 main 1889 1889 _____________O -1 29.0000 -51.1000 HU 75 5 349
1860227N25311 1860 21 NA NA NOT_NAMED 1860-08-15 21:00:00 TS 29.2075 -51.1500 main 1894 1894 _____________P -1 29.2075 -51.1500 HU 70 4 348
1860227N25311 1860 21 NA NA NOT_NAMED 1860-08-16 00:00:00 TS 29.4000 -51.2000 main 1907 1900 _____________O -1 29.4000 -51.2000 HU 65 4 348
1860227N25311 1860 21 NA NA NOT_NAMED 1860-08-16 03:00:00 TS 29.6000 -51.2500 main 1900 1877 _____________P -1 29.6000 -51.2500 HU 60 4 348
1860227N25311 1860 21 NA NA NOT_NAMED 1860-08-16 06:00:00 TS 29.8000 -51.3000 main 1877 1855 _____________O -1 29.8000 -51.3000 TS 55 4 348
1860227N25311 1860 21 NA NA NOT_NAMED 1860-08-16 09:00:00 TS 30.0000 -51.3500 main 1854 1832 _____________P -1 30.0000 -51.3500 TS 50 4 348
1860227N25311 1860 21 NA NA NOT_NAMED 1860-08-16 12:00:00 TS 30.2000 -51.4000 main 1832 1810 _____________O -1 30.2000 -51.4000 TS 45 4 348
1860227N25311 1860 21 NA NA NOT_NAMED 1860-08-16 15:00:00 TS 30.3925 -51.4500 main 1809 1787 _____________P -1 30.3925 -51.4500 TS 42 4 348
1860227N25311 1860 21 NA NA NOT_NAMED 1860-08-16 18:00:00 TS 30.6000 -51.5000 main 1787 1765 _____________O -1 30.6000 -51.5000 TS 40 5 349
1860227N25311 1860 21 NA NA NOT_NAMED 1860-08-16 21:00:00 TS 30.8500 -51.5500 main 1753 1730 _____________P -1 30.8500 -51.5500 TS 37 5 350
1860227N25311 1860 21 NA NA NOT_NAMED 1860-08-17 00:00:00 TS 31.1000 -51.6000 main 1730 1708 _____________O -1 31.1000 -51.6000 TS 35 5 349
1860227N25311 1860 21 NA NA NOT_NAMED 1860-08-17 03:00:00 TS 31.3075 -51.6500 main 1708 1685 _____________P -1 31.3075 -51.6500 TS 32 4 348
1860227N25311 1860 21 NA NA NOT_NAMED 1860-08-17 06:00:00 TS 31.5000 -51.7000 main 1685 1663 _____________O -1 31.5000 -51.7000 TD 30 4 347
1860227N25311 1860 21 NA NA NOT_NAMED 1860-08-17 09:00:00 TS 31.6975 -51.7500 main 1663 1640 _____________P -1 31.6975 -51.7500 TD 30 4 348
1860227N25311 1860 21 NA NA NOT_NAMED 1860-08-17 12:00:00 TS 31.9000 -51.8000 main 1640 _____________O -1 31.9000 -51.8000 TD 30 4 350

IBTrACS Databaseについて

本データベースは、米国NOAAが公開する1842年以降の世界の熱帯低気圧のベストトラックデータアーカイブInternational Best Track Archive for Climate Stewardship (IBTrACS)を、ウェブで閲覧しやすい形式に変換したものです。

最終更新日:2021-11-26